Golden Meadow, Louisiana
Current Conditions -  °F | °C
As of 2:15 PM on Thursday 30 Oct 2014 (Local Time) from KXPY Reporting Station
Clear Clear  
Wind Chill: 72°   Ceiling: Unl
Heat Index: 72°   Visibility: 10mi
Dew Point: 52°   Wind: 14mph
Humidity: 50%   Direction: 60°ENE
Pressure: 30.06"   Gusts: NA
Location:  29.38°N, 90.26°W
Report Text: KXPY 301915Z AUTO 06012KT 10SM CLR 22/11 A3006 RMK A01
Loading
Personal Weather Stations






























Interactive Weather Map
Tropical Storm Tracking
New forecast layout! Learn more

10-Day Weather Forecast

Advertisements
Track Severe Weather on mobile